Chambersburg, Ohio
Current Conditions -  °F | °C
As of 2:51 PM on Thursday 30 Oct 2014 (Local Time) from KCAK Reporting Station
Overcast Overcast  
Wind Chill: 49°   Ceiling: 4200
Heat Index: 49°   Visibility: 10mi
Dew Point: 35°   Wind: 3mph
Humidity: 59%   Direction: 320°NW
Pressure: 30.07"   Gusts: NA
Location:  40.7427°N, 81.0929°W
Report Text: KCAK 301851Z 32003KT 10SM FEW024 OVC042 09/02 A3007 RMK AO2 SLP189 T00940017
Loading
Personal Weather Stations






























Interactive Weather Map
Tropical Storm Tracking
New forecast layout! Learn more

10-Day Weather Forecast

Advertisements
Track Severe Weather on mobile